Portada
METAR-TAF:

METAR-TAF

Aeroports :

Japanese Ground Self Defense Force

Tokachi-Obihiro, Japó

latitud: 42-54N, longitud: 143-10E, altitud: 84 m

Observació

L'informe es va fer fa 17 hores i 6 minuts, a les 07:45 UTC
Vent 2 kt amb direcció variable
Temperatura 13°C
Humitat 100%
Pressió 996 hPa
Visibilitat 10 km o més
Núvols disperses a una alçada de 300 ft
Cel ennuvolat a una alçada de 600 ft
Cel ennuvolat a una alçada de 1200 ft

METAR: RJCT 230745Z VRB02KT 9999 SCT003 BKN006 BKN012 13/13 Q0996 RMK 4ST003 5ST006 7ST012 A2942

Hora: 09:51 (00:51 UTC)


TAF: manca

Observacions i pronòstics meteorològics de més de 4000 aeroports (METAR i TAF).

Les estacions disponibles són els punts grocs i vermells al mapa.

Posi el ratolí al punt desitjat per veure el nom de l'estació.

Feu clic per veure les observacions i els pronòstics meteorològics.

Per canviar el mapa: feu clic els botons verds amb una creu de color negre per apropar; al botó verd amb un guió per allunyar la imatge; o en les fletxes verdes per a mapes adjacents.


METAR-TAF: